createdAt,value
2023-12-04T00:01:26.818Z,6.10
2023-12-04T00:03:54.752Z,6.22
2023-12-04T00:06:24.936Z,7.15
2023-12-04T00:08:52.979Z,7.38
2023-12-04T00:11:21.065Z,8.00
2023-12-04T00:13:48.782Z,6.30
2023-12-04T00:16:16.765Z,7.05
2023-12-04T00:18:44.549Z,7.60
2023-12-04T00:21:14.558Z,6.93
2023-12-04T00:23:42.289Z,6.35
2023-12-04T00:26:10.286Z,6.60
2023-12-04T00:28:38.627Z,6.05
2023-12-04T00:31:07.063Z,5.95
2023-12-04T00:33:34.831Z,6.00
2023-12-04T00:36:03.027Z,5.05
2023-12-04T00:38:30.745Z,6.27
2023-12-04T00:40:58.653Z,7.85
2023-12-04T00:43:26.775Z,6.38
2023-12-04T00:45:54.784Z,5.28
2023-12-04T00:48:22.705Z,5.20
2023-12-04T00:50:52.299Z,5.23
2023-12-04T00:53:19.930Z,5.80
2023-12-04T00:55:47.938Z,5.63
2023-12-04T00:58:16.101Z,5.38
2023-12-04T01:00:44.192Z,5.30
2023-12-04T01:03:11.839Z,6.77
2023-12-04T01:05:39.918Z,6.13
2023-12-04T01:08:07.753Z,5.90
2023-12-04T01:10:35.733Z,5.38
2023-12-04T01:13:03.610Z,5.68
2023-12-04T01:15:31.845Z,5.20
2023-12-04T01:18:02.850Z,5.32
2023-12-04T01:20:31.338Z,4.70
2023-12-04T01:22:59.060Z,4.50
2023-12-04T01:25:27.227Z,5.10
2023-12-04T01:27:54.962Z,4.37
2023-12-04T01:30:23.052Z,4.57
2023-12-04T01:32:50.696Z,5.03
2023-12-04T01:35:19.085Z,5.05
2023-12-04T01:37:46.784Z,5.07
2023-12-04T01:40:14.847Z,4.73
2023-12-04T01:43:53.705Z,5.22
2023-12-04T01:46:22.905Z,4.82
2023-12-04T01:48:51.384Z,4.90
2023-12-04T01:51:21.398Z,5.63
2023-12-04T01:53:49.269Z,4.30
2023-12-04T01:56:19.612Z,4.28
2023-12-04T01:58:47.918Z,4.93
2023-12-04T02:01:16.243Z,3.90
2023-12-04T02:03:44.385Z,4.28
2023-12-04T02:06:13.914Z,4.90
2023-12-04T02:08:42.625Z,4.68
2023-12-04T02:11:11.329Z,5.30
2023-12-04T02:13:40.667Z,5.03
2023-12-04T02:16:11.900Z,4.63
2023-12-04T02:18:39.842Z,5.13
2023-12-04T02:21:08.254Z,5.07
2023-12-04T02:23:35.983Z,5.10
2023-12-04T02:26:14.467Z,4.55
2023-12-04T02:28:44.670Z,4.03
2023-12-04T02:31:13.364Z,4.43
2023-12-04T02:33:42.257Z,4.57
2023-12-04T02:36:11.922Z,4.35
2023-12-04T02:38:39.804Z,4.93
2023-12-04T02:41:09.505Z,4.60
2023-12-04T02:43:37.000Z,4.57
2023-12-04T02:46:05.710Z,4.82
2023-12-04T02:48:36.883Z,5.30
2023-12-04T02:51:05.414Z,4.63
2023-12-04T02:53:33.086Z,4.97
2023-12-04T02:56:01.210Z,5.37
2023-12-04T02:58:28.771Z,5.05
2023-12-04T03:00:56.967Z,5.03
2023-12-04T03:03:24.636Z,5.03
2023-12-04T03:05:52.861Z,4.60
2023-12-04T03:08:48.146Z,4.50
2023-12-04T03:11:16.255Z,4.55
2023-12-04T03:13:43.892Z,5.70
2023-12-04T03:16:19.027Z,4.68
2023-12-04T03:18:47.214Z,4.55
2023-12-04T03:21:16.398Z,4.93
2023-12-04T03:23:44.086Z,4.60
2023-12-04T03:26:11.984Z,4.97
2023-12-04T03:28:42.766Z,5.13
2023-12-04T03:31:11.156Z,4.32
2023-12-04T03:33:39.074Z,4.60
2023-12-04T03:36:07.789Z,4.70
2023-12-04T03:38:35.621Z,5.93
2023-12-04T03:41:03.737Z,4.78
2023-12-04T03:43:31.322Z,4.80
2023-12-04T03:45:59.504Z,5.00
2023-12-04T03:48:27.172Z,4.75
2023-12-04T03:50:55.996Z,4.78
2023-12-04T03:53:25.088Z,4.80
2023-12-04T03:55:53.479Z,4.68
2023-12-04T03:58:21.119Z,4.20
2023-12-04T04:00:49.380Z,4.30
2023-12-04T04:03:17.503Z,4.93
2023-12-04T04:05:45.758Z,4.60
2023-12-04T04:08:13.741Z,5.25
2023-12-04T04:10:41.880Z,6.60
2023-12-04T04:13:09.695Z,5.63
2023-12-04T04:15:37.905Z,5.00
2023-12-04T04:18:05.759Z,4.97
2023-12-04T04:20:33.913Z,5.20
2023-12-04T04:23:04.173Z,4.27
2023-12-04T04:25:32.333Z,4.22
2023-12-04T04:28:00.566Z,5.80
2023-12-04T04:30:28.932Z,4.90
2023-12-04T04:32:56.777Z,6.00
2023-12-04T04:35:24.878Z,4.43
2023-12-04T04:37:53.188Z,4.57
2023-12-04T04:40:21.590Z,4.80
2023-12-04T04:42:49.716Z,4.18
2023-12-04T04:45:19.291Z,4.25
2023-12-04T04:47:47.205Z,4.37
2023-12-04T04:50:16.705Z,4.88
2023-12-04T04:52:44.780Z,4.53
2023-12-04T04:55:45.610Z,4.70
2023-12-04T04:58:01.139Z,4.70
2023-12-04T05:00:29.754Z,4.17
2023-12-04T05:02:58.228Z,5.20
2023-12-04T05:05:26.336Z,5.82
2023-12-04T05:07:54.293Z,5.68
2023-12-04T05:10:22.400Z,5.60
2023-12-04T05:12:50.230Z,5.87
2023-12-04T05:15:18.407Z,6.28
2023-12-04T05:17:46.434Z,6.70
2023-12-04T05:20:14.734Z,5.68
2023-12-04T05:22:42.657Z,5.60
2023-12-04T05:25:11.006Z,5.17
2023-12-04T05:27:39.205Z,9.57
2023-12-04T05:30:08.394Z,30.85
2023-12-04T05:32:37.522Z,13.38
2023-12-04T05:35:06.308Z,4.30
2023-12-04T05:37:34.138Z,6.20
2023-12-04T05:40:02.322Z,5.53
2023-12-04T05:42:30.352Z,5.47
2023-12-04T05:44:59.662Z,5.57
2023-12-04T05:47:28.048Z,8.10
2023-12-04T05:49:56.861Z,7.37
2023-12-04T05:52:24.860Z,11.20
2023-12-04T05:54:56.160Z,6.05
2023-12-04T05:57:26.186Z,4.40
2023-12-04T05:59:54.690Z,5.15
2023-12-04T06:02:22.677Z,4.97
2023-12-04T06:04:50.886Z,4.15
2023-12-04T06:07:19.007Z,5.93
2023-12-04T06:09:47.417Z,5.32
2023-12-04T06:12:15.492Z,5.43
2023-12-04T06:14:43.839Z,4.63
2023-12-04T06:17:11.738Z,5.70
2023-12-04T06:19:40.409Z,4.82
2023-12-04T06:22:08.925Z,5.20
2023-12-04T06:24:37.868Z,5.10
2023-12-04T06:27:07.898Z,4.87
2023-12-04T06:29:36.997Z,12.50
2023-12-04T06:32:06.132Z,9.20
2023-12-04T06:34:34.932Z,7.65
2023-12-04T06:37:04.767Z,28.35
2023-12-04T06:39:35.099Z,16.27
2023-12-04T06:42:03.679Z,8.75
2023-12-04T06:44:32.318Z,7.65
2023-12-04T06:47:01.956Z,13.38
2023-12-04T06:49:34.794Z,8.88
2023-12-04T06:52:02.848Z,9.10
2023-12-04T06:54:31.086Z,44.20
2023-12-04T06:56:59.889Z,29.40
2023-12-04T06:59:27.932Z,20.67
2023-12-04T07:01:56.459Z,28.65
2023-12-04T07:04:24.828Z,18.63
2023-12-04T07:06:53.134Z,23.17
2023-12-04T07:09:22.371Z,14.52
2023-12-04T07:11:50.657Z,24.38
2023-12-04T07:14:18.739Z,24.67
2023-12-04T07:16:46.697Z,18.57
2023-12-04T07:19:16.436Z,12.77
2023-12-04T07:21:44.791Z,12.57
2023-12-04T07:24:13.024Z,10.43
2023-12-04T07:26:41.156Z,8.27
2023-12-04T07:29:09.802Z,8.73
2023-12-04T07:31:37.534Z,9.63
2023-12-04T07:34:06.250Z,10.73
2023-12-04T07:36:34.098Z,12.65
2023-12-04T07:39:03.153Z,11.50
2023-12-04T07:41:32.387Z,10.87
2023-12-04T07:44:00.605Z,10.35
2023-12-04T07:46:28.483Z,29.63
2023-12-04T07:48:57.106Z,21.00
2023-12-04T07:51:25.416Z,15.43
2023-12-04T07:53:53.733Z,12.80
2023-12-04T07:56:21.987Z,18.88
2023-12-04T07:58:50.651Z,10.23
2023-12-04T08:01:18.772Z,9.90
2023-12-04T08:03:47.839Z,8.20
2023-12-04T08:06:17.054Z,8.87
2023-12-04T08:08:45.202Z,10.43
2023-12-04T08:11:13.323Z,18.15
2023-12-04T08:13:42.093Z,17.60
2023-12-04T08:16:16.777Z,13.63
2023-12-04T08:18:45.509Z,27.50
2023-12-04T08:21:15.132Z,10.13
2023-12-04T08:23:43.886Z,6.78
2023-12-04T08:26:16.999Z,7.03
2023-12-04T08:28:46.116Z,7.60
2023-12-04T08:31:14.353Z,8.70
2023-12-04T08:33:43.186Z,10.00
2023-12-04T08:36:13.128Z,8.20
2023-12-04T08:38:42.230Z,7.82
2023-12-04T08:41:10.241Z,12.57
2023-12-04T08:43:38.771Z,9.60
2023-12-04T08:46:07.133Z,8.80
2023-12-04T08:48:35.863Z,8.88
2023-12-04T08:51:04.072Z,7.30
2023-12-04T08:53:32.573Z,7.75
2023-12-04T08:56:00.725Z,17.47
2023-12-04T08:58:29.477Z,10.43
2023-12-04T09:00:57.559Z,7.88
2023-12-04T09:03:31.663Z,9.27
2023-12-04T09:06:01.439Z,9.82
2023-12-04T09:08:35.961Z,10.70
2023-12-04T09:11:18.519Z,11.32
2023-12-04T09:13:52.412Z,5.10
2023-12-04T09:16:20.719Z,7.07
2023-12-04T09:18:49.027Z,7.03
2023-12-04T09:21:17.958Z,7.47
2023-12-04T09:23:51.867Z,8.27
2023-12-04T09:26:20.472Z,9.07
2023-12-04T09:28:50.137Z,13.07
2023-12-04T09:31:26.087Z,11.65
2023-12-04T09:34:06.921Z,7.10
2023-12-04T09:36:40.447Z,6.95
2023-12-04T09:39:15.489Z,9.27
2023-12-04T09:41:46.778Z,5.93
2023-12-04T09:44:16.752Z,6.00
2023-12-04T09:46:58.763Z,8.70
2023-12-04T09:49:40.044Z,11.95
2023-12-04T09:52:16.618Z,14.55
2023-12-04T09:54:46.168Z,20.48
2023-12-04T09:57:26.853Z,15.30
2023-12-04T10:00:02.544Z,10.13
2023-12-04T10:02:41.978Z,7.80
2023-12-04T10:05:11.262Z,6.18
2023-12-04T10:07:44.311Z,9.13
2023-12-04T10:10:12.681Z,9.00
2023-12-04T10:12:40.709Z,7.43
2023-12-04T10:15:11.491Z,7.63
2023-12-04T10:17:41.813Z,7.15
2023-12-04T10:20:22.907Z,9.02
2023-12-04T10:23:03.107Z,10.18
2023-12-04T10:25:33.893Z,5.93
2023-12-04T10:28:17.077Z,10.05
2023-12-04T10:30:47.225Z,13.32
2023-12-04T10:33:18.626Z,9.43
2023-12-04T10:35:51.952Z,6.60
2023-12-04T10:38:29.257Z,5.17
2023-12-04T10:41:21.650Z,5.15
2023-12-04T10:44:04.445Z,4.60
2023-12-04T10:46:47.060Z,4.50
2023-12-04T10:49:23.416Z,5.30
2023-12-04T10:52:12.024Z,8.07
2023-12-04T11:05:33.673Z,7.20
2023-12-04T11:08:15.443Z,5.57
2023-12-04T11:11:00.982Z,7.10
2023-12-04T11:13:31.712Z,7.85
2023-12-04T11:16:09.089Z,7.95
2023-12-04T11:18:40.446Z,8.50
2023-12-04T11:21:12.978Z,15.67
2023-12-04T11:23:41.997Z,5.25
2023-12-04T11:26:12.009Z,4.47
2023-12-04T11:28:42.336Z,22.63
2023-12-04T11:31:11.763Z,5.60
2023-12-04T11:33:40.523Z,12.37
2023-12-04T11:36:17.515Z,6.03
2023-12-04T11:38:48.947Z,20.38
2023-12-04T11:41:25.166Z,5.43
2023-12-04T11:43:59.501Z,6.60
2023-12-04T11:46:30.049Z,5.40
2023-12-04T11:49:19.741Z,4.60
2023-12-04T11:51:52.876Z,5.78
2023-12-04T11:54:27.958Z,6.47
2023-12-04T11:57:03.359Z,4.40
2023-12-04T11:59:39.365Z,5.43
2023-12-04T12:02:12.883Z,4.10
2023-12-04T12:04:42.090Z,6.00
2023-12-04T12:07:11.754Z,5.90
2023-12-04T12:09:40.665Z,4.20
2023-12-04T12:12:11.122Z,4.17
2023-12-04T12:14:39.096Z,4.82
2023-12-04T12:17:07.387Z,5.00
2023-12-04T12:19:35.385Z,5.70
2023-12-04T12:22:05.686Z,6.63
2023-12-04T12:24:34.154Z,7.13
2023-12-04T12:27:03.312Z,5.13
2023-12-04T12:29:31.307Z,5.15
2023-12-04T12:31:59.671Z,4.95
2023-12-04T12:34:31.145Z,5.55
2023-12-04T12:36:59.713Z,4.10
2023-12-04T12:39:27.937Z,4.30
2023-12-04T12:41:56.844Z,28.42
2023-12-04T12:44:24.935Z,7.00
2023-12-04T12:46:53.701Z,5.43
2023-12-04T12:49:32.397Z,4.50
2023-12-04T12:52:11.999Z,15.43
2023-12-04T12:54:44.979Z,19.65
2023-12-04T12:57:14.501Z,5.70
2023-12-04T12:59:42.913Z,5.00
2023-12-04T13:02:12.232Z,5.50
2023-12-04T13:04:42.943Z,7.40
2023-12-04T13:07:12.119Z,4.60
2023-12-04T13:09:40.553Z,9.55
2023-12-04T13:12:10.667Z,5.60
2023-12-04T13:14:40.889Z,4.53
2023-12-04T13:17:11.136Z,4.82
2023-12-04T13:19:39.502Z,4.53
2023-12-04T13:22:08.858Z,4.78
2023-12-04T13:24:42.801Z,7.10
2023-12-04T13:27:12.035Z,7.67
2023-12-04T13:29:40.211Z,5.60
2023-12-04T13:32:09.483Z,5.30
2023-12-04T13:34:37.892Z,5.10
2023-12-04T13:37:06.407Z,5.78
2023-12-04T13:39:51.685Z,5.17
2023-12-04T13:42:40.794Z,5.60
2023-12-04T13:45:11.068Z,5.22
2023-12-04T13:47:41.082Z,5.43
2023-12-04T13:50:12.912Z,4.60
2023-12-04T13:52:43.908Z,4.70
2023-12-04T13:55:23.035Z,4.22
2023-12-04T13:58:04.454Z,4.60
2023-12-04T14:00:32.406Z,4.18
2023-12-04T14:03:08.820Z,4.75
2023-12-04T14:05:37.426Z,4.10
2023-12-04T14:08:09.198Z,4.72
2023-12-04T14:10:38.763Z,4.80
2023-12-04T14:13:07.317Z,5.07
2023-12-04T14:15:35.469Z,4.70
2023-12-04T14:18:04.591Z,4.47
2023-12-04T14:20:32.596Z,6.15
2023-12-04T14:23:01.294Z,11.95
2023-12-04T14:25:29.758Z,26.30
2023-12-04T14:27:58.438Z,34.47
2023-12-04T14:30:29.967Z,30.43
2023-12-04T14:32:58.786Z,19.77
2023-12-04T14:35:27.506Z,12.23
2023-12-04T14:37:56.181Z,8.40
2023-12-04T14:40:24.908Z,6.22
2023-12-04T14:42:53.392Z,6.50
2023-12-04T14:45:22.497Z,8.77
2023-12-04T14:47:54.446Z,8.85
2023-12-04T14:50:24.012Z,8.50
2023-12-04T14:52:54.879Z,8.00
2023-12-04T14:55:26.577Z,7.77
2023-12-04T14:58:28.342Z,9.23
2023-12-04T15:01:21.864Z,9.00
2023-12-04T15:04:09.429Z,6.90
2023-12-04T15:06:57.457Z,6.50
2023-12-04T15:09:46.592Z,5.80
2023-12-04T15:12:51.570Z,7.95
2023-12-04T15:15:40.082Z,9.75
2023-12-04T15:18:27.030Z,8.88
2023-12-04T15:20:55.806Z,6.78
2023-12-04T15:23:25.182Z,6.40
2023-12-04T15:25:54.300Z,8.88
2023-12-04T15:28:22.247Z,17.85
2023-12-04T15:30:51.232Z,15.93
2023-12-04T15:33:20.071Z,13.60
2023-12-04T15:35:48.863Z,14.67
2023-12-04T15:38:17.323Z,13.57
2023-12-04T15:40:46.765Z,10.70
2023-12-04T15:43:15.081Z,11.35
2023-12-04T15:45:44.463Z,11.93
2023-12-04T15:48:14.606Z,15.50
2023-12-04T15:50:44.661Z,11.57
2023-12-04T15:53:12.506Z,12.02
2023-12-04T15:55:41.480Z,13.27
2023-12-04T15:58:09.321Z,12.57
2023-12-04T16:00:41.407Z,10.20
2023-12-04T16:03:10.240Z,9.52
2023-12-04T16:05:39.161Z,6.93
2023-12-04T16:08:07.327Z,7.55
2023-12-04T16:10:38.004Z,10.88
2023-12-04T16:13:06.601Z,10.03
2023-12-04T16:15:35.846Z,10.90
2023-12-04T16:18:05.306Z,19.70
2023-12-04T16:20:35.400Z,11.60
2023-12-04T16:23:04.066Z,15.30
2023-12-04T16:25:33.018Z,15.63
2023-12-04T16:28:02.683Z,12.27
2023-12-04T16:30:31.353Z,11.07
2023-12-04T16:32:59.476Z,11.02
2023-12-04T16:35:30.339Z,11.65
2023-12-04T16:38:03.749Z,11.77
2023-12-04T16:40:32.213Z,13.55
2023-12-04T16:43:02.368Z,22.73
2023-12-04T16:45:32.526Z,28.45
2023-12-04T16:48:01.621Z,14.05
2023-12-04T16:50:34.354Z,12.83
2023-12-04T16:53:03.169Z,10.20
2023-12-04T16:55:32.149Z,12.30
2023-12-04T16:58:05.830Z,10.45
2023-12-04T17:00:38.427Z,12.40
2023-12-04T17:03:06.648Z,8.93
2023-12-04T17:05:35.174Z,13.98
2023-12-04T17:08:03.525Z,11.52
2023-12-04T17:10:31.994Z,17.35
2023-12-04T17:13:00.394Z,34.90
2023-12-04T17:15:29.182Z,32.07
2023-12-04T17:17:57.362Z,11.05
2023-12-04T17:20:26.256Z,26.65
2023-12-04T17:22:54.560Z,15.13
2023-12-04T17:25:24.180Z,11.13
2023-12-04T17:27:52.953Z,14.80
2023-12-04T17:30:21.277Z,13.18
2023-12-04T17:32:49.887Z,8.77
2023-12-04T17:35:18.393Z,8.80
2023-12-04T17:37:47.205Z,11.05
2023-12-04T17:40:17.326Z,15.20
2023-12-04T17:42:50.469Z,16.25
2023-12-04T17:45:20.486Z,12.93
2023-12-04T17:47:49.515Z,23.95
2023-12-04T17:50:18.005Z,19.85
2023-12-04T17:52:46.614Z,17.33
2023-12-04T17:55:16.822Z,13.15
2023-12-04T17:57:45.288Z,18.50
2023-12-04T18:00:20.271Z,11.50
2023-12-04T18:02:48.515Z,16.17
2023-12-04T18:05:18.028Z,15.07
2023-12-04T18:07:48.658Z,13.88
2023-12-04T18:10:17.209Z,15.25
2023-12-04T18:12:45.512Z,16.65
2023-12-04T18:15:14.711Z,20.15
2023-12-04T18:17:43.846Z,15.93
2023-12-04T18:20:15.812Z,26.02
2023-12-04T18:22:46.500Z,35.03
2023-12-04T18:25:15.577Z,30.08
2023-12-04T18:27:44.639Z,18.67
2023-12-04T18:30:18.212Z,18.63
2023-12-04T18:32:46.544Z,21.63
2023-12-04T18:35:16.315Z,18.90
2023-12-04T18:37:50.285Z,17.60
2023-12-04T18:40:21.241Z,19.00
2023-12-04T18:42:51.519Z,18.23
2023-12-04T18:45:20.495Z,17.88
2023-12-04T18:48:00.632Z,13.55
2023-12-04T18:50:37.431Z,16.23
2023-12-04T18:53:06.843Z,19.20
2023-12-04T18:55:35.897Z,14.67
2023-12-04T18:58:04.856Z,14.98
2023-12-04T19:00:33.420Z,15.98
2023-12-04T19:03:01.691Z,17.65
2023-12-04T19:05:32.475Z,29.02
2023-12-04T19:08:01.085Z,36.37
2023-12-04T19:10:33.073Z,16.30
2023-12-04T19:13:01.129Z,25.13
2023-12-04T19:15:31.981Z,26.90
2023-12-04T19:18:00.200Z,27.15
2023-12-04T19:20:31.896Z,23.67
2023-12-04T19:23:03.172Z,24.35
2023-12-04T19:28:10.880Z,24.90
2023-12-04T19:30:40.652Z,22.15
2023-12-04T19:33:15.056Z,25.87
2023-12-04T19:35:47.222Z,11.98
2023-12-04T19:38:15.283Z,8.82
2023-12-04T19:40:44.122Z,10.68
2023-12-04T19:43:16.432Z,10.60
2023-12-04T19:45:45.616Z,5.47
2023-12-04T19:48:13.981Z,13.38
2023-12-04T19:50:43.445Z,15.07
2023-12-04T19:53:12.300Z,13.25
2023-12-04T19:55:40.839Z,19.88
2023-12-04T19:58:08.685Z,18.03
2023-12-04T20:00:37.126Z,18.40
2023-12-04T20:03:06.973Z,18.80
2023-12-04T20:05:36.028Z,17.23
2023-12-04T20:08:09.605Z,10.35
2023-12-04T20:10:39.837Z,10.50
2023-12-04T20:13:08.519Z,11.50
2023-12-04T20:15:36.829Z,12.70
2023-12-04T20:18:05.299Z,10.35
2023-12-04T20:20:34.325Z,10.02
2023-12-04T20:23:02.310Z,11.00
2023-12-04T20:25:30.865Z,15.75
2023-12-04T20:28:00.673Z,13.05
2023-12-04T20:30:31.942Z,12.15
2023-12-04T20:33:00.857Z,9.20
2023-12-04T20:35:30.391Z,9.10
2023-12-04T20:37:58.376Z,7.40
2023-12-04T20:40:26.624Z,15.75
2023-12-04T20:42:54.779Z,15.50
2023-12-04T20:45:29.277Z,16.08
2023-12-04T20:47:57.818Z,33.30
2023-12-04T20:50:27.213Z,13.68
2023-12-04T20:52:55.551Z,14.77
2023-12-04T20:55:24.096Z,21.27
2023-12-04T20:57:52.204Z,16.27
2023-12-04T21:00:21.324Z,10.43
2023-12-04T21:02:50.025Z,9.93
2023-12-04T21:05:18.588Z,13.48
2023-12-04T21:07:46.749Z,11.50
2023-12-04T21:10:14.875Z,12.32
2023-12-04T21:12:42.935Z,11.73
2023-12-04T21:15:12.105Z,8.48
2023-12-04T21:17:40.423Z,7.82
2023-12-04T21:20:09.860Z,5.97
2023-12-04T21:22:37.781Z,6.32
2023-12-04T21:25:10.216Z,7.63
2023-12-04T21:27:39.392Z,12.48
2023-12-04T21:30:09.488Z,15.90
2023-12-04T21:32:38.041Z,21.77
2023-12-04T21:35:06.656Z,17.17
2023-12-04T21:37:34.770Z,8.90
2023-12-04T21:40:03.040Z,6.43
2023-12-04T21:42:31.093Z,6.00
2023-12-04T21:44:59.598Z,7.50
2023-12-04T21:47:27.951Z,7.40
2023-12-04T21:49:56.494Z,8.07
2023-12-04T21:52:25.074Z,7.18
2023-12-04T21:54:53.277Z,8.50
2023-12-04T21:57:21.638Z,9.70
2023-12-04T21:59:51.961Z,8.02
2023-12-04T22:02:20.008Z,7.80
2023-12-04T22:04:50.075Z,7.63
2023-12-04T22:07:19.032Z,9.35
2023-12-04T22:09:47.384Z,8.50
2023-12-04T22:12:15.669Z,7.95
2023-12-04T22:14:44.048Z,6.80
2023-12-04T22:17:12.004Z,6.63
2023-12-04T22:19:40.793Z,6.88
2023-12-04T22:22:08.678Z,7.18
2023-12-04T22:24:36.899Z,7.93
2023-12-04T22:27:05.367Z,9.00
2023-12-04T22:29:33.924Z,8.38
2023-12-04T22:32:02.402Z,9.23
2023-12-04T22:34:30.688Z,8.43
2023-12-04T22:36:58.833Z,8.65
2023-12-04T22:39:27.035Z,7.57
2023-12-04T22:41:55.072Z,7.45
2023-12-04T22:44:23.720Z,7.15
2023-12-04T22:46:51.623Z,7.13
2023-12-04T22:49:19.844Z,6.65
2023-12-04T22:51:47.661Z,6.00
2023-12-04T22:54:15.925Z,6.65
2023-12-04T22:56:44.148Z,6.35
2023-12-04T22:59:12.167Z,7.38
2023-12-04T23:01:40.177Z,8.48
2023-12-04T23:04:08.564Z,7.93
2023-12-04T23:06:36.720Z,8.40
2023-12-04T23:09:04.825Z,9.02
2023-12-04T23:11:33.195Z,7.60
2023-12-04T23:14:01.207Z,9.13
2023-12-04T23:16:29.019Z,11.17
2023-12-04T23:19:00.716Z,12.75
2023-12-04T23:21:29.675Z,12.27
2023-12-04T23:23:57.762Z,13.10
2023-12-04T23:26:27.067Z,13.55
2023-12-04T23:28:54.975Z,13.73
2023-12-04T23:31:24.234Z,13.52
2023-12-04T23:33:52.641Z,14.40
2023-12-04T23:36:20.848Z,12.02
2023-12-04T23:38:49.128Z,12.30
2023-12-04T23:41:16.950Z,14.97
2023-12-04T23:43:45.054Z,14.43
2023-12-04T23:46:12.991Z,11.85
2023-12-04T23:48:41.473Z,12.05
2023-12-04T23:51:09.635Z,10.63
2023-12-04T23:53:37.592Z,13.57
2023-12-04T23:56:06.025Z,12.80
2023-12-04T23:58:34.444Z,14.00
